Time;durP1;ratioP1;P1;durP2;ratioP2;P2;SDS_P1;SDS_P2;PMS_P1;PMS_P2;Temp;Humidity;BMP_temperature;BMP_pressure;BME280_temperature;BME280_humidity;BME280_pressure;Samples;Min_cycle;Max_cycle;Signal;HPM_P1;HPM_P2
2022/04/27 00:00:37;;;;;;;27.17;16.80;;;5.90;99.90;;;;;;5071112;28;20436;-85
2022/04/27 00:03:04;;;;;;;26.38;17.73;;;5.90;99.90;;;;;;5054503;28;20473;-85
2022/04/27 00:05:31;;;;;;;33.83;20.05;;;5.90;99.90;;;;;;5071129;28;20032;-85
2022/04/27 00:07:56;;;;;;;28.58;18.50;;;5.90;99.90;;;;;;5070986;28;20506;-85
2022/04/27 00:10:23;;;;;;;29.40;18.60;;;5.90;99.90;;;;;;5072357;28;20111;-85
2022/04/27 00:12:49;;;;;;;33.08;18.58;;;5.90;99.90;;;;;;5054036;28;20039;-85
2022/04/27 00:15:15;;;;;;;31.48;18.92;;;6.00;99.90;;;;;;5054172;28;20024;-85
2022/04/27 00:17:41;;;;;;;32.05;19.83;;;5.90;99.90;;;;;;5054144;28;20525;-85
2022/04/27 00:20:08;;;;;;;29.55;18.60;;;5.90;99.90;;;;;;5054324;28;20387;-85
2022/04/27 00:22:35;;;;;;;30.15;19.23;;;6.00;99.90;;;;;;5053679;28;20105;-85
2022/04/27 00:25:02;;;;;;;31.15;19.00;;;6.00;99.90;;;;;;5053208;28;20098;-84
2022/04/27 00:27:41;;;;;;;30.33;19.40;;;6.00;99.90;;;;;;5053370;28;20031;-85
2022/04/27 00:30:07;;;;;;;35.13;20.02;;;6.00;99.90;;;;;;5053638;28;20048;-85
2022/04/27 00:32:33;;;;;;;32.63;20.60;;;6.00;99.90;;;;;;5053629;28;20021;-85
2022/04/27 00:34:58;;;;;;;30.50;19.30;;;6.00;99.90;;;;;;5053912;28;20036;-85
2022/04/27 00:37:24;;;;;;;29.88;18.92;;;6.00;99.90;;;;;;5072405;28;20488;-84
2022/04/27 00:39:50;;;;;;;34.15;18.40;;;6.00;99.90;;;;;;5057807;28;20028;-85
2022/04/27 00:42:24;;;;;;;35.38;20.08;;;6.10;99.90;;;;;;5058067;28;20062;-84
2022/04/27 00:44:50;;;;;;;29.80;18.65;;;6.10;99.90;;;;;;5057895;28;20430;-84
2022/04/27 00:47:17;;;;;;;33.03;19.85;;;6.10;99.90;;;;;;5057356;28;20028;-85
2022/04/27 00:49:47;;;;;;;31.70;19.35;;;6.10;99.90;;;;;;5057785;28;20036;-85
2022/04/27 00:52:14;;;;;;;31.70;19.30;;;6.10;99.90;;;;;;5057850;28;20037;-85
2022/04/27 00:54:42;;;;;;;30.90;18.98;;;6.10;99.90;;;;;;5057737;28;20162;-85
2022/04/27 00:57:08;;;;;;;30.15;19.20;;;6.10;99.90;;;;;;5057625;28;20024;-85
2022/04/27 00:59:34;;;;;;;33.63;19.80;;;6.10;99.90;;;;;;5057226;28;20480;-85
2022/04/27 01:02:01;;;;;;;31.02;19.95;;;6.10;99.90;;;;;;5057448;28;20391;-85
2022/04/27 01:04:27;;;;;;;32.50;21.02;;;6.10;99.90;;;;;;5057579;28;20032;-85
2022/04/27 01:06:53;;;;;;;30.50;19.83;;;6.20;99.90;;;;;;5057473;28;20035;-85
2022/04/27 01:09:19;;;;;;;32.78;20.45;;;6.20;99.90;;;;;;5074113;28;20095;-85
2022/04/27 01:11:45;;;;;;;30.30;19.83;;;6.20;99.90;;;;;;5057360;28;20035;-85
2022/04/27 01:14:11;;;;;;;30.67;19.15;;;6.20;99.90;;;;;;5057145;28;20039;-85
2022/04/27 01:16:37;;;;;;;30.75;19.33;;;6.20;99.90;;;;;;5056626;28;20032;-85
2022/04/27 01:19:05;;;;;;;36.33;20.30;;;6.20;99.90;;;;;;5056841;28;20052;-85
2022/04/27 01:21:31;;;;;;;31.02;19.73;;;6.20;99.90;;;;;;5057297;28;20074;-85
2022/04/27 01:24:04;;;;;;;;;;;6.10;99.90;;;;;;5058399;28;20025;-85
2022/04/27 01:26:29;;;;;;;29.85;19.27;;;6.10;99.90;;;;;;5056911;28;20383;-85
2022/04/27 01:28:55;;;;;;;33.85;20.75;;;5.90;99.90;;;;;;5056113;28;20131;-85
2022/04/27 01:31:21;;;;;;;35.50;20.73;;;5.80;99.90;;;;;;5056032;28;20100;-85
2022/04/27 01:33:47;;;;;;;30.98;20.27;;;5.70;99.90;;;;;;5073864;28;20833;-85
2022/04/27 01:36:15;;;;;;;32.55;20.60;;;5.70;99.90;;;;;;5056193;28;20242;-85
2022/04/27 01:38:43;;;;;;;30.95;20.83;;;5.70;99.90;;;;;;5056409;28;20037;-85
2022/04/27 01:41:09;;;;;;;34.85;20.58;;;5.60;99.90;;;;;;5056291;28;20033;-85
2022/04/27 01:43:36;;;;;;;33.13;19.83;;;5.70;99.90;;;;;;5056600;28;20025;-85
2022/04/27 01:46:02;;;;;;;35.40;21.50;;;5.70;99.90;;;;;;5056186;28;20886;-84
2022/04/27 01:48:53;;;;;;;40.90;21.48;;;5.70;99.90;;;;;;5055715;28;20028;-85
2022/04/27 01:54:14;;;;;;;37.83;21.90;;;5.70;99.90;;;;;;5056241;28;20050;-85
2022/04/27 01:54:15;;;;;;;41.20;20.63;;;5.70;99.90;;;;;;5072720;28;20119;-84
2022/04/27 01:56:49;;;;;;;34.60;20.08;;;5.70;99.90;;;;;;5056096;28;20041;-84
2022/04/27 01:59:15;;;;;;;40.35;21.23;;;5.70;99.90;;;;;;5055659;28;20052;-85
2022/04/27 02:01:41;;;;;;;41.83;22.80;;;5.70;99.90;;;;;;5056136;28;20445;-85
2022/04/27 02:04:08;;;;;;;39.00;22.45;;;5.70;99.90;;;;;;5073130;28;20387;-85
2022/04/27 02:06:35;;;;;;;42.28;22.75;;;5.70;99.90;;;;;;5056274;28;20052;-85
2022/04/27 02:09:05;;;;;;;38.53;23.25;;;5.70;99.90;;;;;;5056142;28;20032;-84
2022/04/27 02:11:39;;;;;;;43.30;23.50;;;5.60;99.90;;;;;;5057360;28;20038;-85
2022/04/27 02:14:18;;;;;;;42.85;24.60;;;5.60;99.90;;;;;;5056493;28;20040;-85
2022/04/27 02:16:44;;;;;;;42.25;23.63;;;5.60;99.90;;;;;;5056122;28;20034;-85
2022/04/27 02:19:14;;;;;;;45.63;24.75;;;5.60;99.90;;;;;;5072176;28;20031;-85
2022/04/27 02:21:41;;;;;;;43.55;25.48;;;5.60;99.90;;;;;;5056164;28;20032;-85
2022/04/27 02:24:07;;;;;;;42.55;23.35;;;5.50;99.90;;;;;;5056411;28;20032;-85
2022/04/27 02:26:33;;;;;;;47.10;25.15;;;5.50;99.90;;;;;;5055764;28;20055;-85
2022/04/27 02:29:00;;;;;;;44.90;24.98;;;5.40;99.90;;;;;;5055468;28;20033;-85
2022/04/27 02:31:28;;;;;;;42.95;23.77;;;5.40;99.90;;;;;;5071747;28;20028;-85
2022/04/27 02:33:54;;;;;;;47.47;25.90;;;5.30;99.90;;;;;;5055336;28;20487;-85
2022/04/27 02:36:21;;;;;;;49.33;27.00;;;5.30;99.90;;;;;;5055441;28;20028;-84
2022/04/27 02:38:47;;;;;;;56.45;25.80;;;5.40;99.90;;;;;;5055445;28;20028;-85
2022/04/27 02:41:13;;;;;;;52.95;27.20;;;5.40;99.90;;;;;;5071755;28;20373;-85
2022/04/27 02:43:39;;;;;;;44.90;25.67;;;5.50;99.90;;;;;;5055010;28;20028;-85
2022/04/27 02:46:07;;;;;;;50.50;25.80;;;5.50;99.90;;;;;;5055440;28;20025;-85
2022/04/27 02:48:33;;;;;;;46.50;26.10;;;5.50;99.90;;;;;;5055132;28;20024;-85
2022/04/27 02:53:43;;;;;;;48.25;26.85;;;5.70;99.90;;;;;;5071523;28;20143;-85
2022/04/27 02:56:10;;;;;;;50.03;28.10;;;5.70;99.90;;;;;;5055361;28;20122;-84
2022/04/27 02:58:36;;;;;;;49.08;27.73;;;5.70;99.90;;;;;;5054789;28;20040;-84
2022/04/27 03:01:02;;;;;;;51.00;27.38;;;5.70;99.90;;;;;;5071158;28;20033;-84
2022/04/27 03:03:28;;;;;;;47.97;26.40;;;5.70;99.90;;;;;;5055202;28;20112;-85
2022/04/27 03:05:56;;;;;;;48.95;26.27;;;5.70;99.90;;;;;;5055369;28;20174;-85
2022/04/27 03:08:22;;;;;;;56.95;30.48;;;5.70;99.90;;;;;;5054711;28;20119;-85
2022/04/27 03:10:52;;;;;;;53.08;28.35;;;5.70;99.90;;;;;;5055762;28;20029;-85
2022/04/27 03:13:22;;;;;;;51.42;28.52;;;5.70;99.90;;;;;;5055694;28;20028;-85
2022/04/27 03:15:51;;;;;;;53.55;28.73;;;5.70;99.90;;;;;;5055241;28;20111;-84
2022/04/27 03:18:17;;;;;;;55.53;29.45;;;5.70;99.90;;;;;;5054558;28;20484;-84
2022/04/27 03:20:50;;;;;;;51.60;28.98;;;5.70;99.90;;;;;;5054446;28;20035;-85
2022/04/27 03:23:17;;;;;;;54.15;28.27;;;5.60;99.90;;;;;;5054935;28;20040;-85
2022/04/27 03:25:48;;;;;;;54.33;28.75;;;5.60;99.90;;;;;;5071467;28;20111;-84
2022/04/27 03:28:14;;;;;;;60.58;31.40;;;5.60;99.90;;;;;;5054606;28;20028;-84
2022/04/27 03:30:40;;;;;;;56.92;30.70;;;5.50;99.90;;;;;;5054447;28;20035;-85
2022/04/27 03:33:17;;;;;;;55.88;29.35;;;5.50;99.90;;;;;;5055469;28;20574;-85
2022/04/27 03:35:43;;;;;;;63.92;31.02;;;5.50;99.90;;;;;;5054241;28;20035;-85
2022/04/27 03:38:20;;;;;;;62.40;33.97;;;5.50;99.90;;;;;;5054544;28;20590;-85
2022/04/27 03:40:47;;;;;;;63.70;32.20;;;5.50;99.90;;;;;;5055045;28;20031;-85
2022/04/27 03:43:15;;;;;;;62.85;33.03;;;5.60;99.90;;;;;;5054915;28;20032;-84
2022/04/27 03:45:42;;;;;;;67.22;32.20;;;5.60;99.90;;;;;;5054908;28;20020;-85
2022/04/27 03:48:08;;;;;;;69.55;34.30;;;5.60;99.90;;;;;;5071441;28;20056;-85
2022/04/27 03:50:35;;;;;;;67.72;33.78;;;5.60;99.90;;;;;;5054482;28;20047;-85
2022/04/27 03:53:01;;;;;;;66.40;34.45;;;5.70;99.90;;;;;;5054570;28;20032;-85
2022/04/27 03:55:33;;;;;;;72.50;34.33;;;5.60;99.90;;;;;;5055016;28;20515;-85
2022/04/27 03:58:00;;;;;;;68.97;34.78;;;5.60;99.90;;;;;;5054342;28;20122;-85
2022/04/27 04:00:26;;;;;;;66.40;34.80;;;5.60;99.90;;;;;;5072957;28;20504;-85
2022/04/27 04:03:04;;;;;;;68.15;36.60;;;5.50;99.90;;;;;;5056412;28;20093;-85
2022/04/27 04:05:31;;;;;;;68.25;35.08;;;5.40;99.90;;;;;;5071293;28;20029;-85
2022/04/27 04:07:58;;;;;;;69.40;35.88;;;5.30;99.90;;;;;;5054670;28;20033;-85
2022/04/27 04:10:24;;;;;;;80.57;37.78;;;5.10;99.90;;;;;;5055701;28;20024;-85
2022/04/27 04:12:50;;;;;;;72.25;37.42;;;5.10;99.90;;;;;;5075314;28;20919;-83
2022/04/27 04:15:37;;;;;;;79.53;39.58;;;5.10;99.90;;;;;;5075469;28;20044;-83
2022/04/27 04:18:21;;;;;;;76.95;38.83;;;5.00;99.90;;;;;;5074915;28;20075;-83
2022/04/27 04:21:06;;;;;;;81.43;38.00;;;4.90;99.90;;;;;;5075021;28;20449;-83
2022/04/27 04:23:41;;;;;;;90.85;40.17;;;4.80;99.90;;;;;;5059328;28;20024;-83
2022/04/27 04:28:55;;;;;;;93.07;43.28;;;4.80;99.90;;;;;;5074587;28;20024;-83
2022/04/27 04:31:21;;;;;;;89.57;41.05;;;4.80;99.90;;;;;;5075057;28;20081;-83
2022/04/27 04:34:05;;;;;;;95.25;41.08;;;4.80;99.90;;;;;;5075178;28;20128;-83
2022/04/27 04:36:32;;;;;;;95.90;43.92;;;4.80;99.90;;;;;;5074607;28;20036;-83
2022/04/27 04:38:58;;;;;;;95.82;43.53;;;4.90;99.90;;;;;;5074502;28;20032;-83
2022/04/27 04:41:26;;;;;;;103.95;46.38;;;5.00;99.90;;;;;;5074920;28;20060;-83
2022/04/27 04:43:55;;;;;;;102.25;46.22;;;5.10;99.90;;;;;;5058505;28;20488;-83
2022/04/27 04:46:23;;;;;;;106.47;46.60;;;5.20;99.90;;;;;;5058102;28;20430;-83
2022/04/27 04:49:12;;;;;;;106.80;47.35;;;5.40;99.90;;;;;;5072738;28;20107;-83
2022/04/27 04:52:00;;;;;;;104.97;46.65;;;5.40;99.90;;;;;;5060394;28;20437;-83
2022/04/27 04:54:44;;;;;;;99.78;46.70;;;5.50;99.90;;;;;;5059985;28;20029;-83
2022/04/27 04:57:09;;;;;;;98.18;43.80;;;5.60;99.90;;;;;;5074364;28;20396;-83
2022/04/27 04:59:56;;;;;;;99.65;45.78;;;5.50;99.90;;;;;;5074323;28;20097;-83
2022/04/27 05:02:33;;;;;;;97.28;45.47;;;5.50;99.90;;;;;;5073833;28;20040;-83
2022/04/27 05:05:15;;;;;;;99.85;45.00;;;5.40;99.90;;;;;;5059447;28;20170;-83
2022/04/27 05:07:59;;;;;;;101.95;44.63;;;5.40;99.90;;;;;;5074488;28;20040;-83
2022/04/27 05:10:57;;;;;;;110.85;46.10;;;5.40;99.90;;;;;;5068326;28;20040;-83
2022/04/27 05:13:38;;;;;;;99.50;45.53;;;5.50;99.90;;;;;;5058858;28;20036;-83
2022/04/27 05:16:39;;;;;;;96.05;43.70;;;5.60;99.90;;;;;;5052651;28;20029;-83
2022/04/27 05:19:37;;;;;;;93.45;41.97;;;5.70;99.90;;;;;;5057251;28;20047;-83
2022/04/27 05:22:49;;;;;;;92.50;42.80;;;5.80;99.90;;;;;;5078884;28;20048;-83
2022/04/27 05:25:30;;;;;;;91.20;41.25;;;5.80;99.90;;;;;;5093174;28;20487;-83
2022/04/27 05:31:53;;;;;;;85.38;40.65;;;5.80;99.90;;;;;;5063174;28;20122;-83
2022/04/27 05:34:35;;;;;;;82.70;41.53;;;6.20;99.90;;;;;;5075112;28;20056;-83
2022/04/27 05:37:09;;;;;;;76.82;39.92;;;6.40;99.90;;;;;;5092536;28;20088;-83
2022/04/27 05:39:55;;;;;;;66.32;34.78;;;6.50;99.90;;;;;;5068093;28;20553;-83
2022/04/27 05:42:30;;;;;;;62.42;32.33;;;6.70;99.90;;;;;;5075269;28;20036;-83
2022/04/27 05:45:21;;;;;;;59.63;33.20;;;6.80;99.90;;;;;;5056554;28;20078;-83
2022/04/27 05:47:58;;;;;;;50.30;30.50;;;6.80;99.90;;;;;;5060231;28;20036;-83
2022/04/27 05:50:36;;;;;;;55.47;32.03;;;6.80;99.90;;;;;;5060428;28;20057;-83
2022/04/27 05:53:21;;;;;;;51.03;29.55;;;6.90;99.90;;;;;;5058314;28;20048;-84
2022/04/27 05:56:01;;;;;;;50.78;29.13;;;7.00;99.90;;;;;;5058483;28;20025;-83
2022/04/27 05:58:30;;;;;;;47.63;28.15;;;7.10;99.90;;;;;;5073129;28;20028;-83
2022/04/27 06:01:29;;;;;;;46.28;27.15;;;7.20;99.90;;;;;;5062843;28;20036;-83
2022/04/27 06:04:05;;;;;;;41.30;25.65;;;7.50;99.90;;;;;;5058440;28;20115;-83
2022/04/27 06:06:35;;;;;;;46.13;27.10;;;7.70;99.90;;;;;;5073206;28;20078;-83
2022/04/27 06:09:05;;;;;;;43.42;27.10;;;7.70;99.90;;;;;;5056711;28;20120;-83
2022/04/27 06:11:44;;;;;;;42.67;24.52;;;7.80;99.90;;;;;;5057422;28;20028;-83
2022/04/27 06:14:28;;;;;;;45.47;26.67;;;7.70;99.90;;;;;;5072516;28;20097;-83
2022/04/27 06:16:55;;;;;;;43.03;25.40;;;7.70;99.90;;;;;;5055582;28;20025;-83
2022/04/27 06:19:20;;;;;;;45.03;26.33;;;7.60;99.90;;;;;;5055158;28;20025;-83
2022/04/27 06:21:51;;;;;;;46.50;26.17;;;7.60;99.90;;;;;;5056753;28;20039;-83
2022/04/27 06:24:19;;;;;;;46.33;26.27;;;7.50;99.90;;;;;;5072700;28;20498;-83
2022/04/27 06:26:47;;;;;;;44.22;27.08;;;7.50;99.90;;;;;;5072468;28;20017;-83
2022/04/27 06:29:13;;;;;;;47.60;27.77;;;7.40;99.90;;;;;;5055665;28;20074;-83
2022/04/27 06:31:44;;;;;;;45.08;26.85;;;7.50;99.90;;;;;;5072223;28;20109;-83
2022/04/27 06:34:09;;;;;;;47.88;28.02;;;7.50;99.90;;;;;;5071631;28;20068;-83
2022/04/27 06:36:36;;;;;;;46.10;26.42;;;7.50;99.90;;;;;;5071801;28;20738;-83
2022/04/27 06:39:04;;;;;;;45.40;25.85;;;7.60;99.90;;;;;;5071637;28;20488;-83
2022/04/27 06:41:31;;;;;;;42.90;24.83;;;7.70;99.90;;;;;;5055569;28;20043;-84
2022/04/27 06:44:15;;;;;;;39.05;23.38;;;7.90;99.90;;;;;;5072512;28;20036;-83
2022/04/27 06:46:59;;;;;;;43.10;25.83;;;8.00;99.90;;;;;;5072594;28;20043;-83
2022/04/27 06:49:43;;;;;;;38.13;22.45;;;8.30;99.90;;;;;;5073592;28;20047;-83
2022/04/27 06:52:27;;;;;;;33.83;21.75;;;8.40;99.90;;;;;;5072883;28;20419;-84
2022/04/27 06:55:11;;;;;;;36.08;21.48;;;8.70;99.90;;;;;;5073562;28;20083;-83
2022/04/27 06:57:56;;;;;;;29.35;18.15;;;8.90;99.90;;;;;;5072410;28;20097;-83
2022/04/27 07:00:25;;;;;;;27.98;17.17;;;9.10;99.90;;;;;;5055518;28;20124;-83
2022/04/27 07:02:52;;;;;;;33.33;20.23;;;9.30;99.90;;;;;;5055126;28;20123;-83
2022/04/27 07:05:20;;;;;;;29.33;18.42;;;9.30;99.90;;;;;;5038919;28;20488;-83
2022/04/27 07:07:46;;;;;;;28.10;18.85;;;9.40;99.90;;;;;;5054546;28;20028;-83
2022/04/27 07:10:13;;;;;;;25.40;16.58;;;9.50;99.90;;;;;;5071797;28;20096;-83
2022/04/27 07:12:39;;;;;;;25.70;16.80;;;9.50;99.90;;;;;;5054648;28;20033;-83
2022/04/27 07:15:05;;;;;;;29.00;18.17;;;9.40;99.90;;;;;;5071710;28;20036;-83
2022/04/27 07:17:31;;;;;;;26.05;15.20;;;9.30;99.90;;;;;;5071685;28;20041;-83
2022/04/27 07:19:57;;;;;;;26.65;16.88;;;9.30;99.90;;;;;;5054237;28;20820;-83
2022/04/27 07:22:23;;;;;;;26.88;17.63;;;9.20;99.90;;;;;;5072602;28;20043;-83
2022/04/27 07:24:49;;;;;;;25.70;15.98;;;9.30;99.90;;;;;;5071475;28;20119;-84
2022/04/27 07:27:33;;;;;;;24.83;16.90;;;9.40;99.90;;;;;;5054636;28;20031;-83
2022/04/27 07:29:59;;;;;;;27.80;16.80;;;9.40;99.90;;;;;;5054699;28;20032;-83
2022/04/27 07:32:25;;;;;;;18.27;13.13;;;9.40;99.90;;;;;;5054846;28;20216;-84
2022/04/27 07:34:51;;;;;;;19.23;13.90;;;9.40;99.90;;;;;;5054131;28;20028;-83
2022/04/27 07:37:18;;;;;;;21.08;14.05;;;9.50;99.90;;;;;;5071241;28;20123;-83
2022/04/27 07:39:43;;;;;;;24.30;15.02;;;9.60;99.90;;;;;;5054646;28;20082;-83
2022/04/27 07:42:09;;;;;;;20.15;14.27;;;9.60;99.90;;;;;;5054458;28;20488;-83
2022/04/27 07:44:35;;;;;;;23.40;15.00;;;9.80;99.90;;;;;;5054067;28;20196;-83
2022/04/27 07:47:01;;;;;;;20.55;13.50;;;9.90;99.90;;;;;;5057693;28;20059;-84
2022/04/27 07:49:26;;;;;;;20.00;13.95;;;10.00;99.90;;;;;;5076165;28;20024;-83
2022/04/27 07:51:53;;;;;;;18.33;12.80;;;10.00;99.90;;;;;;5075234;28;20036;-83
2022/04/27 07:54:19;;;;;;;20.35;13.48;;;10.10;99.90;;;;;;5058569;28;20020;-83
2022/04/27 07:56:44;;;;;;;22.42;14.15;;;10.10;99.90;;;;;;5058744;28;20074;-83
2022/04/27 07:59:10;;;;;;;19.27;13.32;;;10.30;99.90;;;;;;5058344;28;20036;-83
2022/04/27 08:01:36;;;;;;;21.00;14.02;;;10.30;99.90;;;;;;5075094;28;20036;-83
2022/04/27 08:04:01;;;;;;;17.88;13.02;;;10.50;99.90;;;;;;5075093;28;20047;-83
2022/04/27 08:06:27;;;;;;;20.35;12.35;;;10.60;99.90;;;;;;5058770;28;20078;-84
2022/04/27 08:08:53;;;;;;;17.17;12.38;;;10.70;99.90;;;;;;5075161;28;20032;-83
2022/04/27 08:11:18;;;;;;;18.73;13.40;;;10.80;99.90;;;;;;5074654;28;20190;-83
2022/04/27 08:13:45;;;;;;;21.30;13.52;;;10.90;99.90;;;;;;5058026;28;20029;-83
2022/04/27 08:16:11;;;;;;;20.75;12.90;;;11.00;99.90;;;;;;5058150;28;20028;-84
2022/04/27 08:18:40;;;;;;;19.60;12.85;;;11.20;99.90;;;;;;5074486;28;20035;-84
2022/04/27 08:21:15;;;;;;;15.25;11.23;;;11.50;99.90;;;;;;5057879;28;20032;-84
2022/04/27 08:23:44;;;;;;;18.70;12.88;;;12.20;99.90;;;;;;5057782;28;20033;-83
2022/04/27 08:26:13;;;;;;;19.65;13.98;;;12.80;99.90;;;;;;5074861;28;20032;-84
2022/04/27 08:28:40;;;;;;;19.77;14.38;;;13.50;99.90;;;;;;5057317;28;20035;-84
2022/04/27 08:31:07;;;;;;;21.55;13.85;;;13.70;99.90;;;;;;5058131;28;20032;-83
2022/04/27 08:33:33;;;;;;;18.45;12.77;;;13.60;99.90;;;;;;5057484;28;20032;-83
2022/04/27 08:35:59;;;;;;;19.45;14.75;;;13.50;99.90;;;;;;5074725;28;20471;-83
2022/04/27 08:38:26;;;;;;;18.90;13.13;;;13.40;99.90;;;;;;5057513;28;20071;-84
2022/04/27 08:40:53;;;;;;;18.90;13.90;;;13.40;99.90;;;;;;5074092;28;20032;-83
2022/04/27 08:43:20;;;;;;;20.27;13.07;;;13.20;99.90;;;;;;5057555;28;20029;-83
2022/04/27 08:45:47;;;;;;;20.00;12.90;;;14.00;99.90;;;;;;5073902;28;20487;-84
2022/04/27 08:48:14;;;;;;;15.20;11.27;;;14.90;99.90;;;;;;5057415;28;20407;-83
2022/04/27 08:50:40;;;;;;;15.65;11.27;;;16.30;99.90;;;;;;5074348;28;20052;-84
2022/04/27 08:53:07;;;;;;;14.13;11.50;;;17.40;99.90;;;;;;5074371;28;20036;-83
2022/04/27 08:55:34;;;;;;;17.88;12.15;;;17.20;99.90;;;;;;5073968;28;20028;-84
2022/04/27 08:58:14;;;;;;;14.23;11.50;;;17.90;99.90;;;;;;5055200;28;20075;-83
2022/04/27 09:00:44;;;;;;;14.00;10.32;;;18.80;99.90;;;;;;5056694;28;20032;-83
2022/04/27 09:03:27;;;;;;;12.73;11.20;;;19.10;99.90;;;;;;5056065;28;20037;-83
2022/04/27 09:06:07;;;;;;;17.52;11.25;;;18.50;99.90;;;;;;5057085;28;20033;-84
2022/04/27 09:08:58;;;;;;;17.55;11.95;;;18.30;99.90;;;;;;5056839;28;20453;-83
2022/04/27 09:11:26;;;;;;;19.45;12.38;;;16.70;99.90;;;;;;5073141;28;20112;-83
2022/04/27 09:13:54;;;;;;;16.90;12.05;;;16.10;99.90;;;;;;5056776;28;20043;-83
2022/04/27 09:16:23;;;;;;;14.70;12.02;;;15.20;99.90;;;;;;5073865;28;20043;-83
2022/04/27 09:21:58;;;;;;;16.10;11.85;;;16.00;99.90;;;;;;5073328;28;20039;-83
2022/04/27 09:24:24;;;;;;;12.57;10.85;;;17.60;99.90;;;;;;5073098;28;20112;-83
2022/04/27 09:27:09;;;;;;;15.52;11.52;;;18.20;99.90;;;;;;5056372;28;20048;-84
2022/04/27 09:29:35;;;;;;;14.38;11.00;;;18.60;99.90;;;;;;5073220;28;20107;-84
2022/04/27 09:32:03;;;;;;;13.95;11.70;;;19.00;99.90;;;;;;5074000;28;20042;-83
2022/04/27 09:34:29;;;;;;;16.13;12.40;;;18.80;99.90;;;;;;5056998;28;20032;-84
2022/04/27 09:36:58;;;;;;;14.57;11.73;;;18.60;99.90;;;;;;5056029;28;20123;-84
2022/04/27 09:39:25;;;;;;;18.20;12.38;;;18.30;99.90;;;;;;5073290;28;20065;-84
2022/04/27 09:41:51;;;;;;;14.63;12.07;;;17.60;99.90;;;;;;5073202;28;20032;-83
2022/04/27 09:44:30;;;;;;;22.85;12.30;;;16.90;99.90;;;;;;5056686;28;20033;-84
2022/04/27 09:46:58;;;;;;;15.43;12.57;;;16.30;99.90;;;;;;5073228;28;20403;-83
2022/04/27 09:49:24;;;;;;;14.57;11.90;;;15.50;99.90;;;;;;5055967;28;20029;-83
2022/04/27 09:51:51;;;;;;;17.15;13.23;;;15.20;99.90;;;;;;5056023;28;20090;-84
2022/04/27 09:54:21;;;;;;;17.73;12.98;;;15.40;99.90;;;;;;5072997;28;20555;-83
2022/04/27 09:56:58;;;;;;;15.65;12.93;;;15.30;99.90;;;;;;5056479;28;20032;-84
2022/04/27 09:59:27;;;;;;;20.65;14.75;;;15.00;99.90;;;;;;5056272;28;20035;-83
2022/04/27 10:02:04;;;;;;;19.00;13.95;;;14.70;99.90;;;;;;5073202;28;20036;-83
2022/04/27 10:04:30;;;;;;;14.90;11.52;;;14.40;99.90;;;;;;5073053;28;20028;-84
2022/04/27 10:07:00;;;;;;;17.90;12.88;;;15.10;99.90;;;;;;5072768;28;20524;-83
2022/04/27 10:09:27;;;;;;;16.27;12.88;;;15.70;99.90;;;;;;5055549;28;20081;-83
2022/04/27 10:12:03;;;;;;;17.33;13.88;;;16.30;99.90;;;;;;5055344;28;20052;-84
2022/04/27 10:14:30;;;;;;;14.93;10.75;;;16.80;99.90;;;;;;5073801;28;20032;-84
2022/04/27 10:16:56;;;;;;;14.10;11.88;;;17.90;99.90;;;;;;5056044;28;20032;-84
2022/04/27 10:19:23;;;;;;;13.85;10.93;;;18.70;99.90;;;;;;5055506;28;20497;-85
2022/04/27 10:21:57;;;;;;;12.73;10.50;;;19.30;99.90;;;;;;5055628;28;20444;-84
2022/04/27 10:24:38;;;;;;;13.88;10.00;;;19.00;99.90;;;;;;5055729;28;20035;-83
2022/04/27 10:27:24;;;;;;;12.63;10.40;;;18.60;99.90;;;;;;5071507;28;20475;-84
2022/04/27 10:30:10;;;;;;;12.68;10.52;;;18.90;99.90;;;;;;5071565;28;20028;-83
2022/04/27 10:32:47;;;;;;;13.27;10.50;;;19.00;99.90;;;;;;5071809;28;20064;-84
2022/04/27 10:35:14;;;;;;;13.52;11.40;;;18.80;99.90;;;;;;5054284;28;20032;-84
2022/04/27 10:38:00;;;;;;;13.73;11.35;;;17.50;99.90;;;;;;5054659;28;20119;-84
2022/04/27 10:40:37;;;;;;;12.82;11.13;;;16.90;99.90;;;;;;5071154;28;20032;-84
2022/04/27 10:43:04;;;;;;;15.55;10.95;;;16.20;99.90;;;;;;5071268;28;20036;-83
2022/04/27 10:45:29;;;;;;;14.25;11.93;;;15.90;99.90;;;;;;5055023;28;20021;-83
2022/04/27 10:47:55;;;;;;;14.57;11.75;;;15.50;99.90;;;;;;5071693;28;20034;-83
2022/04/27 10:50:28;;;;;;;16.73;12.52;;;15.00;99.90;;;;;;5055658;28;20052;-84
2022/04/27 10:52:55;;;;;;;16.27;12.05;;;15.00;99.90;;;;;;5072033;28;20560;-83
2022/04/27 10:55:33;;;;;;;15.35;12.07;;;15.10;99.90;;;;;;5054993;28;20025;-84
2022/04/27 10:58:12;;;;;;;15.55;11.40;;;15.90;99.90;;;;;;5073004;28;20033;-84
2022/04/27 11:01:03;;;;;;;11.48;9.25;;;16.80;99.90;;;;;;5055364;28;20089;-84
2022/04/27 11:03:36;;;;;;;14.68;10.27;;;18.30;99.90;;;;;;5055503;28;20032;-84
2022/04/27 11:06:04;;;;;;;15.25;10.60;;;18.30;99.90;;;;;;5055555;28;20111;-84
2022/04/27 11:08:36;;;;;;;18.98;10.65;;;17.30;99.90;;;;;;5054819;28;20024;-84
2022/04/27 11:11:08;;;;;;;13.35;11.20;;;17.00;99.90;;;;;;5071911;28;20108;-84
2022/04/27 11:13:35;;;;;;;12.02;9.68;;;17.20;99.90;;;;;;5071811;28;20063;-84
2022/04/27 11:16:14;;;;;;;12.45;10.07;;;16.60;99.90;;;;;;5054877;28;20032;-84
2022/04/27 11:19:37;;;;;;;11.70;9.70;;;16.50;99.90;;;;;;5070745;28;20115;-84
2022/04/27 11:22:10;;;;;;;11.75;8.80;;;17.20;99.90;;;;;;5054128;28;20029;-84
2022/04/27 11:24:36;;;;;;;13.52;9.82;;;17.50;99.90;;;;;;5054810;28;20226;-84
2022/04/27 11:27:03;;;;;;;13.35;10.63;;;18.10;99.90;;;;;;5071571;28;20123;-84
2022/04/27 11:29:30;;;;;;;15.77;10.32;;;17.60;99.90;;;;;;5054421;28;20036;-83
2022/04/27 11:31:55;;;;;;;16.42;11.63;;;16.90;99.90;;;;;;5054314;28;20258;-83
2022/04/27 11:34:26;;;;;;;13.50;11.18;;;16.20;99.90;;;;;;5054561;28;20036;-84
2022/04/27 11:37:36;;;;;;;12.90;9.88;;;16.10;99.90;;;;;;5054038;28;20032;-83
2022/04/27 11:40:19;;;;;;;12.63;9.85;;;16.40;99.90;;;;;;5054268;28;20040;-84
2022/04/27 11:42:46;;;;;;;12.18;9.57;;;16.90;99.90;;;;;;5054585;28;20515;-84
2022/04/27 11:45:17;;;;;;;11.38;9.82;;;17.50;99.90;;;;;;5071515;28;20775;-84
2022/04/27 11:47:43;;;;;;;16.45;11.13;;;17.60;99.90;;;;;;5072613;28;20031;-84
2022/04/27 11:50:08;;;;;;;12.02;9.80;;;17.50;99.90;;;;;;5071026;28;20460;-83
2022/04/27 11:52:37;;;;;;;9.82;8.38;;;17.90;99.90;;;;;;5053879;28;20476;-84
2022/04/27 11:55:12;;;;;;;13.70;10.35;;;17.50;99.90;;;;;;5070802;28;20483;-83
2022/04/27 11:57:40;;;;;;;14.00;9.98;;;17.90;99.90;;;;;;5053756;28;20043;-84
2022/04/27 12:00:07;;;;;;;9.93;8.32;;;17.70;99.90;;;;;;5053830;28;20032;-83
2022/04/27 12:02:42;;;;;;;11.40;8.70;;;17.40;99.90;;;;;;5054888;28;20086;-83
2022/04/27 12:05:08;;;;;;;10.55;8.38;;;16.80;99.90;;;;;;5071084;28;20549;-84
2022/04/27 12:07:35;;;;;;;17.80;9.05;;;17.10;99.90;;;;;;5054220;28;20059;-84
2022/04/27 12:10:10;;;;;;;10.95;8.50;;;17.20;99.90;;;;;;5070696;28;20033;-84
2022/04/27 12:12:39;;;;;;;9.95;8.40;;;16.90;99.90;;;;;;5054743;28;20445;-84
2022/04/27 12:15:07;;;;;;;9.20;7.03;;;16.70;99.90;;;;;;5071462;28;20427;-84
2022/04/27 12:17:51;;;;;;;11.32;8.60;;;16.70;99.90;;;;;;5054128;28;20082;-84
2022/04/27 12:20:25;;;;;;;10.45;7.72;;;16.30;99.90;;;;;;5053578;28;20041;-83
2022/04/27 12:22:55;;;;;;;12.30;9.25;;;16.10;99.90;;;;;;5053526;28;20028;-83
2022/04/27 12:25:30;;;;;;;10.65;8.60;;;15.60;99.90;;;;;;5070221;28;20769;-84
2022/04/27 12:27:56;;;;;;;11.25;9.13;;;15.60;99.90;;;;;;5070923;28;20033;-84
2022/04/27 12:30:23;;;;;;;13.77;9.70;;;15.50;99.90;;;;;;5070572;28;20032;-84
2022/04/27 12:32:48;;;;;;;12.50;9.05;;;15.50;99.90;;;;;;5056503;28;20475;-84
2022/04/27 12:38:09;;;;;;;9.70;7.78;;;15.80;99.90;;;;;;5074248;28;20033;-84
2022/04/27 12:40:34;;;;;;;10.75;7.63;;;16.10;99.90;;;;;;5057718;28;20070;-84
2022/04/27 12:43:07;;;;;;;10.65;7.95;;;16.00;99.90;;;;;;5057907;28;20471;-84
2022/04/27 12:45:34;;;;;;;12.40;8.90;;;16.20;99.90;;;;;;5057330;28;20037;-83
2022/04/27 12:48:00;;;;;;;9.18;7.85;;;15.70;99.90;;;;;;5057275;28;20029;-84
2022/04/27 12:50:26;;;;;;;10.25;8.45;;;15.50;99.90;;;;;;5057731;28;20726;-84
2022/04/27 12:53:06;;;;;;;10.30;8.35;;;15.20;99.90;;;;;;5057545;28;20063;-83
2022/04/27 12:55:31;;;;;;;12.00;8.73;;;15.20;99.90;;;;;;5057348;28;20387;-84
2022/04/27 12:57:59;;;;;;;9.60;8.25;;;15.20;99.90;;;;;;5056447;28;20036;-84
2022/04/27 13:00:45;;;;;;;11.48;8.77;;;15.20;99.90;;;;;;5073313;28;20048;-83
2022/04/27 13:03:12;;;;;;;10.43;7.47;;;15.30;99.90;;;;;;5056968;28;20036;-83
2022/04/27 13:05:43;;;;;;;8.35;6.38;;;15.50;99.90;;;;;;5057197;28;20055;-84
2022/04/27 13:08:10;;;;;;;13.65;7.57;;;15.50;99.90;;;;;;5056908;28;20093;-84
2022/04/27 13:13:22;;;;;;;8.35;6.78;;;15.90;99.90;;;;;;5073504;28;20028;-84